sensor_id;sensor_type;location;lat;lon;timestamp;temperature;humidity
38464;DHT22;24243;51.956;5.902;2023-07-29T00:01:23;24.70;58.40
38464;DHT22;24243;51.956;5.902;2023-07-29T00:03:48;24.70;58.40
38464;DHT22;24243;51.956;5.902;2023-07-29T00:06:14;24.70;58.40
38464;DHT22;24243;51.956;5.902;2023-07-29T00:08:40;24.70;58.40
38464;DHT22;24243;51.956;5.902;2023-07-29T00:11:05;24.70;58.40
38464;DHT22;24243;51.956;5.902;2023-07-29T00:13:31;24.70;58.40
38464;DHT22;24243;51.956;5.902;2023-07-29T00:15:57;24.70;58.40
38464;DHT22;24243;51.956;5.902;2023-07-29T00:18:22;24.70;58.30
38464;DHT22;24243;51.956;5.902;2023-07-29T00:20:49;24.70;58.30
38464;DHT22;24243;51.956;5.902;2023-07-29T00:23:16;24.70;58.30
38464;DHT22;24243;51.956;5.902;2023-07-29T00:25:42;24.60;58.30
38464;DHT22;24243;51.956;5.902;2023-07-29T00:28:08;24.70;58.40
38464;DHT22;24243;51.956;5.902;2023-07-29T00:30:33;24.70;58.30
38464;DHT22;24243;51.956;5.902;2023-07-29T00:32:59;24.70;58.30
38464;DHT22;24243;51.956;5.902;2023-07-29T00:35:25;24.70;58.30
38464;DHT22;24243;51.956;5.902;2023-07-29T00:37:50;24.70;58.30
38464;DHT22;24243;51.956;5.902;2023-07-29T00:40:20;24.60;58.30
38464;DHT22;24243;51.956;5.902;2023-07-29T00:42:46;24.60;58.30
38464;DHT22;24243;51.956;5.902;2023-07-29T00:45:12;24.60;58.20
38464;DHT22;24243;51.956;5.902;2023-07-29T00:47:38;24.60;58.30
38464;DHT22;24243;51.956;5.902;2023-07-29T00:50:03;24.70;58.30
38464;DHT22;24243;51.956;5.902;2023-07-29T00:52:29;24.60;58.30
38464;DHT22;24243;51.956;5.902;2023-07-29T00:54:55;24.60;58.20
38464;DHT22;24243;51.956;5.902;2023-07-29T00:57:21;24.60;58.20
38464;DHT22;24243;51.956;5.902;2023-07-29T00:59:46;24.60;58.20
38464;DHT22;24243;51.956;5.902;2023-07-29T01:02:13;24.60;58.20
38464;DHT22;24243;51.956;5.902;2023-07-29T01:04:38;24.60;58.20
38464;DHT22;24243;51.956;5.902;2023-07-29T01:17:15;24.60;58.20
38464;DHT22;24243;51.956;5.902;2023-07-29T01:20:00;24.60;58.20
38464;DHT22;24243;51.956;5.902;2023-07-29T01:22:31;24.60;58.20
38464;DHT22;24243;51.956;5.902;2023-07-29T01:24:58;24.60;58.20
38464;DHT22;24243;51.956;5.902;2023-07-29T01:27:23;24.60;58.20
38464;DHT22;24243;51.956;5.902;2023-07-29T01:29:49;24.60;58.20
38464;DHT22;24243;51.956;5.902;2023-07-29T01:32:17;24.60;58.20
38464;DHT22;24243;51.956;5.902;2023-07-29T01:37:10;24.60;58.20
38464;DHT22;24243;51.956;5.902;2023-07-29T01:39:38;24.60;58.20
38464;DHT22;24243;51.956;5.902;2023-07-29T01:42:04;24.60;58.20
38464;DHT22;24243;51.956;5.902;2023-07-29T01:44:30;24.60;58.20
38464;DHT22;24243;51.956;5.902;2023-07-29T01:46:56;24.60;58.20
38464;DHT22;24243;51.956;5.902;2023-07-29T01:49:22;24.60;58.10
38464;DHT22;24243;51.956;5.902;2023-07-29T01:51:47;24.60;58.10
38464;DHT22;24243;51.956;5.902;2023-07-29T01:54:13;24.60;58.10
38464;DHT22;24243;51.956;5.902;2023-07-29T01:56:39;24.60;58.10
38464;DHT22;24243;51.956;5.902;2023-07-29T01:59:04;24.60;58.20
38464;DHT22;24243;51.956;5.902;2023-07-29T02:01:30;24.60;58.10
38464;DHT22;24243;51.956;5.902;2023-07-29T02:03:56;24.60;58.10
38464;DHT22;24243;51.956;5.902;2023-07-29T02:06:22;24.60;58.10
38464;DHT22;24243;51.956;5.902;2023-07-29T02:08:48;24.60;58.10
38464;DHT22;24243;51.956;5.902;2023-07-29T02:11:13;24.50;58.10
38464;DHT22;24243;51.956;5.902;2023-07-29T02:13:39;24.60;58.10
38464;DHT22;24243;51.956;5.902;2023-07-29T02:16:04;24.60;58.10
38464;DHT22;24243;51.956;5.902;2023-07-29T02:18:30;24.60;58.10
38464;DHT22;24243;51.956;5.902;2023-07-29T02:20:56;24.50;58.00
38464;DHT22;24243;51.956;5.902;2023-07-29T02:23:21;24.50;58.00
38464;DHT22;24243;51.956;5.902;2023-07-29T02:25:48;24.50;58.00
38464;DHT22;24243;51.956;5.902;2023-07-29T02:28:13;24.50;58.00
38464;DHT22;24243;51.956;5.902;2023-07-29T02:30:40;24.50;58.00
38464;DHT22;24243;51.956;5.902;2023-07-29T02:33:06;24.60;58.10
38464;DHT22;24243;51.956;5.902;2023-07-29T02:35:32;24.50;58.00
38464;DHT22;24243;51.956;5.902;2023-07-29T02:37:57;24.50;58.00
38464;DHT22;24243;51.956;5.902;2023-07-29T02:40:23;24.50;58.00
38464;DHT22;24243;51.956;5.902;2023-07-29T02:42:52;24.50;58.00
38464;DHT22;24243;51.956;5.902;2023-07-29T02:45:17;24.60;58.10
38464;DHT22;24243;51.956;5.902;2023-07-29T02:47:43;24.50;58.00
38464;DHT22;24243;51.956;5.902;2023-07-29T02:50:08;24.50;58.00
38464;DHT22;24243;51.956;5.902;2023-07-29T02:52:34;24.50;58.00
38464;DHT22;24243;51.956;5.902;2023-07-29T02:55:00;24.50;58.00
38464;DHT22;24243;51.956;5.902;2023-07-29T02:57:25;24.50;58.00
38464;DHT22;24243;51.956;5.902;2023-07-29T02:59:51;24.50;58.00
38464;DHT22;24243;51.956;5.902;2023-07-29T03:02:16;24.50;58.00
38464;DHT22;24243;51.956;5.902;2023-07-29T03:04:42;24.50;58.00
38464;DHT22;24243;51.956;5.902;2023-07-29T03:07:08;24.50;58.00
38464;DHT22;24243;51.956;5.902;2023-07-29T03:09:33;24.50;58.00
38464;DHT22;24243;51.956;5.902;2023-07-29T03:11:59;24.50;58.00
38464;DHT22;24243;51.956;5.902;2023-07-29T03:14:26;24.50;58.00
38464;DHT22;24243;51.956;5.902;2023-07-29T03:16:51;24.50;58.00
38464;DHT22;24243;51.956;5.902;2023-07-29T03:19:17;24.50;58.00
38464;DHT22;24243;51.956;5.902;2023-07-29T03:21:43;24.50;58.00
38464;DHT22;24243;51.956;5.902;2023-07-29T03:24:09;24.50;58.00
38464;DHT22;24243;51.956;5.902;2023-07-29T03:26:34;24.50;58.00
38464;DHT22;24243;51.956;5.902;2023-07-29T03:29:00;24.50;58.00
38464;DHT22;24243;51.956;5.902;2023-07-29T03:31:25;24.50;58.00
38464;DHT22;24243;51.956;5.902;2023-07-29T03:33:51;24.50;58.00
38464;DHT22;24243;51.956;5.902;2023-07-29T03:36:17;24.50;58.00
38464;DHT22;24243;51.956;5.902;2023-07-29T03:38:42;24.50;58.00
38464;DHT22;24243;51.956;5.902;2023-07-29T03:41:10;24.50;58.00
38464;DHT22;24243;51.956;5.902;2023-07-29T03:43:35;24.50;58.00
38464;DHT22;24243;51.956;5.902;2023-07-29T03:46:01;24.50;58.00
38464;DHT22;24243;51.956;5.902;2023-07-29T03:48:27;24.50;58.00
38464;DHT22;24243;51.956;5.902;2023-07-29T03:50:52;24.50;58.00
38464;DHT22;24243;51.956;5.902;2023-07-29T03:53:18;24.50;58.00
38464;DHT22;24243;51.956;5.902;2023-07-29T03:55:43;24.50;57.90
38464;DHT22;24243;51.956;5.902;2023-07-29T03:58:10;24.50;58.00
38464;DHT22;24243;51.956;5.902;2023-07-29T04:00:36;24.50;57.90
38464;DHT22;24243;51.956;5.902;2023-07-29T04:03:01;24.50;58.00
38464;DHT22;24243;51.956;5.902;2023-07-29T04:05:27;24.50;57.90
38464;DHT22;24243;51.956;5.902;2023-07-29T04:07:53;24.50;57.90
38464;DHT22;24243;51.956;5.902;2023-07-29T04:10:19;24.50;57.90
38464;DHT22;24243;51.956;5.902;2023-07-29T04:12:45;24.50;58.00
38464;DHT22;24243;51.956;5.902;2023-07-29T04:15:10;24.50;57.90
38464;DHT22;24243;51.956;5.902;2023-07-29T04:17:36;24.50;57.90
38464;DHT22;24243;51.956;5.902;2023-07-29T04:20:02;24.40;57.90
38464;DHT22;24243;51.956;5.902;2023-07-29T04:22:28;24.50;58.00
38464;DHT22;24243;51.956;5.902;2023-07-29T04:24:54;24.50;57.90
38464;DHT22;24243;51.956;5.902;2023-07-29T04:27:19;24.50;57.90
38464;DHT22;24243;51.956;5.902;2023-07-29T04:29:45;24.40;57.90
38464;DHT22;24243;51.956;5.902;2023-07-29T04:32:11;24.40;57.90
38464;DHT22;24243;51.956;5.902;2023-07-29T04:34:36;24.50;57.90
38464;DHT22;24243;51.956;5.902;2023-07-29T04:37:02;24.50;57.90
38464;DHT22;24243;51.956;5.902;2023-07-29T04:39:28;24.50;57.90
38464;DHT22;24243;51.956;5.902;2023-07-29T04:41:54;24.40;57.80
38464;DHT22;24243;51.956;5.902;2023-07-29T04:44:19;24.40;57.80
38464;DHT22;24243;51.956;5.902;2023-07-29T04:46:45;24.50;57.90
38464;DHT22;24243;51.956;5.902;2023-07-29T04:49:11;24.50;57.90
38464;DHT22;24243;51.956;5.902;2023-07-29T04:51:37;24.50;57.90
38464;DHT22;24243;51.956;5.902;2023-07-29T04:54:02;24.40;57.80
38464;DHT22;24243;51.956;5.902;2023-07-29T04:56:28;24.40;57.80
38464;DHT22;24243;51.956;5.902;2023-07-29T04:58:53;24.40;57.80
38464;DHT22;24243;51.956;5.902;2023-07-29T05:01:19;24.40;57.80
38464;DHT22;24243;51.956;5.902;2023-07-29T05:03:45;24.40;57.80
38464;DHT22;24243;51.956;5.902;2023-07-29T05:06:11;24.40;57.80
38464;DHT22;24243;51.956;5.902;2023-07-29T05:08:36;24.40;57.80
38464;DHT22;24243;51.956;5.902;2023-07-29T05:11:02;24.40;57.80
38464;DHT22;24243;51.956;5.902;2023-07-29T05:13:27;24.50;57.80
38464;DHT22;24243;51.956;5.902;2023-07-29T05:15:53;24.40;57.80
38464;DHT22;24243;51.956;5.902;2023-07-29T05:18:19;24.50;57.80
38464;DHT22;24243;51.956;5.902;2023-07-29T05:20:45;24.40;57.80
38464;DHT22;24243;51.956;5.902;2023-07-29T05:23:10;24.40;57.70
38464;DHT22;24243;51.956;5.902;2023-07-29T05:25:36;24.40;57.70
38464;DHT22;24243;51.956;5.902;2023-07-29T05:28:02;24.40;57.80
38464;DHT22;24243;51.956;5.902;2023-07-29T05:30:28;24.40;57.70
38464;DHT22;24243;51.956;5.902;2023-07-29T05:32:56;24.40;57.70
38464;DHT22;24243;51.956;5.902;2023-07-29T05:35:22;24.40;57.70
38464;DHT22;24243;51.956;5.902;2023-07-29T05:37:48;24.50;57.70
38464;DHT22;24243;51.956;5.902;2023-07-29T05:40:14;24.40;57.70
38464;DHT22;24243;51.956;5.902;2023-07-29T05:42:39;24.40;57.70
38464;DHT22;24243;51.956;5.902;2023-07-29T05:45:05;24.40;57.70
38464;DHT22;24243;51.956;5.902;2023-07-29T05:47:31;24.40;57.70
38464;DHT22;24243;51.956;5.902;2023-07-29T05:49:57;24.50;57.70
38464;DHT22;24243;51.956;5.902;2023-07-29T05:52:23;24.50;57.70
38464;DHT22;24243;51.956;5.902;2023-07-29T05:54:53;24.40;57.70
38464;DHT22;24243;51.956;5.902;2023-07-29T05:57:18;24.40;57.70
38464;DHT22;24243;51.956;5.902;2023-07-29T05:59:44;24.50;57.70
38464;DHT22;24243;51.956;5.902;2023-07-29T06:02:10;24.50;57.70
38464;DHT22;24243;51.956;5.902;2023-07-29T06:04:35;24.50;57.70
38464;DHT22;24243;51.956;5.902;2023-07-29T06:07:01;24.50;57.70
38464;DHT22;24243;51.956;5.902;2023-07-29T06:09:26;24.50;57.60
38464;DHT22;24243;51.956;5.902;2023-07-29T06:11:52;24.50;57.60
38464;DHT22;24243;51.956;5.902;2023-07-29T06:14:18;24.50;57.60
38464;DHT22;24243;51.956;5.902;2023-07-29T06:16:43;24.50;57.60
38464;DHT22;24243;51.956;5.902;2023-07-29T06:19:09;24.50;57.60
38464;DHT22;24243;51.956;5.902;2023-07-29T06:21:35;24.50;57.50
38464;DHT22;24243;51.956;5.902;2023-07-29T06:24:01;24.50;57.50
38464;DHT22;24243;51.956;5.902;2023-07-29T06:26:27;24.60;57.60
38464;DHT22;24243;51.956;5.902;2023-07-29T06:28:52;24.60;57.50
38464;DHT22;24243;51.956;5.902;2023-07-29T06:31:18;24.60;57.50
38464;DHT22;24243;51.956;5.902;2023-07-29T06:33:43;24.60;57.50
38464;DHT22;24243;51.956;5.902;2023-07-29T06:36:10;24.70;57.50
38464;DHT22;24243;51.956;5.902;2023-07-29T06:38:35;24.70;57.50
38464;DHT22;24243;51.956;5.902;2023-07-29T06:41:02;24.70;57.50
38464;DHT22;24243;51.956;5.902;2023-07-29T06:43:28;24.70;57.40
38464;DHT22;24243;51.956;5.902;2023-07-29T06:45:53;24.70;57.40
38464;DHT22;24243;51.956;5.902;2023-07-29T06:48:19;24.80;57.40
38464;DHT22;24243;51.956;5.902;2023-07-29T06:50:45;24.80;57.30
38464;DHT22;24243;51.956;5.902;2023-07-29T06:53:11;24.80;57.30
38464;DHT22;24243;51.956;5.902;2023-07-29T06:55:37;24.80;57.30
38464;DHT22;24243;51.956;5.902;2023-07-29T06:58:02;24.80;57.30
38464;DHT22;24243;51.956;5.902;2023-07-29T07:00:28;24.90;57.30
38464;DHT22;24243;51.956;5.902;2023-07-29T07:02:54;24.90;57.30
38464;DHT22;24243;51.956;5.902;2023-07-29T07:05:20;24.90;57.30
38464;DHT22;24243;51.956;5.902;2023-07-29T07:07:45;24.90;57.30
38464;DHT22;24243;51.956;5.902;2023-07-29T07:10:11;24.90;57.20
38464;DHT22;24243;51.956;5.902;2023-07-29T07:12:36;24.90;57.20
38464;DHT22;24243;51.956;5.902;2023-07-29T07:15:02;24.90;57.20
38464;DHT22;24243;51.956;5.902;2023-07-29T07:17:28;24.90;57.10
38464;DHT22;24243;51.956;5.902;2023-07-29T07:19:53;24.80;57.10
38464;DHT22;24243;51.956;5.902;2023-07-29T07:22:19;24.80;57.10
38464;DHT22;24243;51.956;5.902;2023-07-29T07:24:45;24.80;57.10
38464;DHT22;24243;51.956;5.902;2023-07-29T07:27:10;24.70;57.10
38464;DHT22;24243;51.956;5.902;2023-07-29T07:29:36;24.70;57.10
38464;DHT22;24243;51.956;5.902;2023-07-29T07:32:01;24.70;57.10
38464;DHT22;24243;51.956;5.902;2023-07-29T07:34:27;24.70;57.10
38464;DHT22;24243;51.956;5.902;2023-07-29T07:36:53;24.70;57.10
38464;DHT22;24243;51.956;5.902;2023-07-29T07:39:19;24.70;57.70
38464;DHT22;24243;51.956;5.902;2023-07-29T07:41:44;24.60;57.10
38464;DHT22;24243;51.956;5.902;2023-07-29T07:44:10;24.60;57.10
38464;DHT22;24243;51.956;5.902;2023-07-29T07:46:38;24.60;57.10
38464;DHT22;24243;51.956;5.902;2023-07-29T07:49:03;24.60;57.00
38464;DHT22;24243;51.956;5.902;2023-07-29T07:51:29;24.60;57.10
38464;DHT22;24243;51.956;5.902;2023-07-29T07:53:55;24.50;57.00
38464;DHT22;24243;51.956;5.902;2023-07-29T07:56:21;24.50;57.00
38464;DHT22;24243;51.956;5.902;2023-07-29T07:58:46;24.50;57.00
38464;DHT22;24243;51.956;5.902;2023-07-29T08:01:12;24.50;57.00
38464;DHT22;24243;51.956;5.902;2023-07-29T08:03:38;24.50;57.00
38464;DHT22;24243;51.956;5.902;2023-07-29T08:06:03;24.50;57.00
38464;DHT22;24243;51.956;5.902;2023-07-29T08:08:29;24.50;56.90
38464;DHT22;24243;51.956;5.902;2023-07-29T08:10:56;24.50;56.90
38464;DHT22;24243;51.956;5.902;2023-07-29T08:13:22;24.50;57.00
38464;DHT22;24243;51.956;5.902;2023-07-29T08:15:48;24.40;56.90
38464;DHT22;24243;51.956;5.902;2023-07-29T08:18:13;24.40;57.00
38464;DHT22;24243;51.956;5.902;2023-07-29T08:20:39;24.40;57.00
38464;DHT22;24243;51.956;5.902;2023-07-29T08:23:04;24.40;57.00
38464;DHT22;24243;51.956;5.902;2023-07-29T08:25:30;24.40;57.00
38464;DHT22;24243;51.956;5.902;2023-07-29T08:27:56;24.40;57.00
38464;DHT22;24243;51.956;5.902;2023-07-29T08:30:22;24.40;57.00
38464;DHT22;24243;51.956;5.902;2023-07-29T08:32:47;24.40;57.00
38464;DHT22;24243;51.956;5.902;2023-07-29T08:35:13;24.30;56.90
38464;DHT22;24243;51.956;5.902;2023-07-29T08:37:39;24.30;56.90
38464;DHT22;24243;51.956;5.902;2023-07-29T08:40:05;24.30;56.90
38464;DHT22;24243;51.956;5.902;2023-07-29T08:42:31;24.30;57.00
38464;DHT22;24243;51.956;5.902;2023-07-29T08:44:56;24.30;56.90
38464;DHT22;24243;51.956;5.902;2023-07-29T08:47:26;24.30;57.00
38464;DHT22;24243;51.956;5.902;2023-07-29T08:49:52;24.30;57.00
38464;DHT22;24243;51.956;5.902;2023-07-29T08:52:18;24.30;57.00
38464;DHT22;24243;51.956;5.902;2023-07-29T08:54:43;24.30;57.00
38464;DHT22;24243;51.956;5.902;2023-07-29T08:57:09;24.30;57.00
38464;DHT22;24243;51.956;5.902;2023-07-29T08:59:35;24.30;57.00
38464;DHT22;24243;51.956;5.902;2023-07-29T09:02:01;24.30;57.00
38464;DHT22;24243;51.956;5.902;2023-07-29T09:04:26;24.30;56.90
38464;DHT22;24243;51.956;5.902;2023-07-29T09:06:54;24.40;56.90
38464;DHT22;24243;51.956;5.902;2023-07-29T09:09:21;24.40;56.90
38464;DHT22;24243;51.956;5.902;2023-07-29T09:11:47;24.40;56.90
38464;DHT22;24243;51.956;5.902;2023-07-29T09:14:13;24.40;56.90
38464;DHT22;24243;51.956;5.902;2023-07-29T09:16:38;24.40;56.80
38464;DHT22;24243;51.956;5.902;2023-07-29T09:19:04;24.40;56.80
38464;DHT22;24243;51.956;5.902;2023-07-29T09:21:30;24.40;56.80
38464;DHT22;24243;51.956;5.902;2023-07-29T09:23:56;24.40;56.80
38464;DHT22;24243;51.956;5.902;2023-07-29T09:26:25;24.40;56.80
38464;DHT22;24243;51.956;5.902;2023-07-29T09:28:52;24.40;56.80
38464;DHT22;24243;51.956;5.902;2023-07-29T09:31:21;24.40;56.80
38464;DHT22;24243;51.956;5.902;2023-07-29T09:33:47;24.40;56.80
38464;DHT22;24243;51.956;5.902;2023-07-29T09:36:13;24.40;56.70
38464;DHT22;24243;51.956;5.902;2023-07-29T09:38:38;24.50;56.70
38464;DHT22;24243;51.956;5.902;2023-07-29T09:41:04;24.40;56.70
38464;DHT22;24243;51.956;5.902;2023-07-29T09:43:34;24.40;56.60
38464;DHT22;24243;51.956;5.902;2023-07-29T09:46:03;24.50;56.60
38464;DHT22;24243;51.956;5.902;2023-07-29T09:48:32;24.40;56.60
38464;DHT22;24243;51.956;5.902;2023-07-29T09:50:58;24.50;56.60
38464;DHT22;24243;51.956;5.902;2023-07-29T09:53:24;24.50;56.60
38464;DHT22;24243;51.956;5.902;2023-07-29T09:55:49;24.50;56.60
38464;DHT22;24243;51.956;5.902;2023-07-29T09:58:19;24.50;56.60
38464;DHT22;24243;51.956;5.902;2023-07-29T10:00:45;24.50;56.60
38464;DHT22;24243;51.956;5.902;2023-07-29T10:03:10;24.50;56.50
38464;DHT22;24243;51.956;5.902;2023-07-29T10:05:36;24.50;56.50
38464;DHT22;24243;51.956;5.902;2023-07-29T10:08:04;24.50;56.60
38464;DHT22;24243;51.956;5.902;2023-07-29T10:10:30;24.50;56.60
38464;DHT22;24243;51.956;5.902;2023-07-29T10:12:56;24.60;56.60
38464;DHT22;24243;51.956;5.902;2023-07-29T10:15:21;24.60;56.60
38464;DHT22;24243;51.956;5.902;2023-07-29T10:17:47;24.60;56.60
38464;DHT22;24243;51.956;5.902;2023-07-29T10:20:13;24.70;56.70
38464;DHT22;24243;51.956;5.902;2023-07-29T10:22:42;24.70;56.60
38464;DHT22;24243;51.956;5.902;2023-07-29T10:25:33;24.70;56.60
38464;DHT22;24243;51.956;5.902;2023-07-29T10:28:00;24.70;56.60
38464;DHT22;24243;51.956;5.902;2023-07-29T10:30:28;24.80;56.70
38464;DHT22;24243;51.956;5.902;2023-07-29T10:32:54;24.80;56.60
38464;DHT22;24243;51.956;5.902;2023-07-29T10:35:21;24.80;56.60
38464;DHT22;24243;51.956;5.902;2023-07-29T10:37:47;24.90;56.60
38464;DHT22;24243;51.956;5.902;2023-07-29T10:40:16;24.90;56.60
38464;DHT22;24243;51.956;5.902;2023-07-29T10:43:12;24.90;56.60
38464;DHT22;24243;51.956;5.902;2023-07-29T10:45:36;24.90;56.50
38464;DHT22;24243;51.956;5.902;2023-07-29T10:48:04;24.90;56.50
38464;DHT22;24243;51.956;5.902;2023-07-29T10:50:31;25.00;56.50
38464;DHT22;24243;51.956;5.902;2023-07-29T10:52:57;25.00;56.50
38464;DHT22;24243;51.956;5.902;2023-07-29T10:55:26;25.00;56.50
38464;DHT22;24243;51.956;5.902;2023-07-29T10:57:52;25.00;56.50
38464;DHT22;24243;51.956;5.902;2023-07-29T11:00:21;25.00;56.50
38464;DHT22;24243;51.956;5.902;2023-07-29T11:02:56;25.00;56.50
38464;DHT22;24243;51.956;5.902;2023-07-29T11:05:24;25.00;56.50
38464;DHT22;24243;51.956;5.902;2023-07-29T11:07:49;25.00;56.50
38464;DHT22;24243;51.956;5.902;2023-07-29T11:10:15;25.00;56.50
38464;DHT22;24243;51.956;5.902;2023-07-29T11:12:42;25.00;56.50
38464;DHT22;24243;51.956;5.902;2023-07-29T11:15:27;25.00;56.50
38464;DHT22;24243;51.956;5.902;2023-07-29T11:17:57;25.00;56.50
38464;DHT22;24243;51.956;5.902;2023-07-29T11:20:32;25.00;56.50
38464;DHT22;24243;51.956;5.902;2023-07-29T11:23:02;25.00;56.50
38464;DHT22;24243;51.956;5.902;2023-07-29T11:25:29;25.00;56.50
38464;DHT22;24243;51.956;5.902;2023-07-29T11:27:55;25.00;56.50
38464;DHT22;24243;51.956;5.902;2023-07-29T11:30:21;25.00;56.60
38464;DHT22;24243;51.956;5.902;2023-07-29T11:32:48;25.10;56.70
38464;DHT22;24243;51.956;5.902;2023-07-29T11:35:17;25.10;56.70
38464;DHT22;24243;51.956;5.902;2023-07-29T11:37:44;25.10;56.70
38464;DHT22;24243;51.956;5.902;2023-07-29T11:40:13;25.10;56.70
38464;DHT22;24243;51.956;5.902;2023-07-29T11:42:38;25.10;56.70
38464;DHT22;24243;51.956;5.902;2023-07-29T11:45:04;25.10;56.70
38464;DHT22;24243;51.956;5.902;2023-07-29T11:47:32;25.10;56.70
38464;DHT22;24243;51.956;5.902;2023-07-29T11:50:01;25.10;56.70
38464;DHT22;24243;51.956;5.902;2023-07-29T11:52:27;25.10;56.70
38464;DHT22;24243;51.956;5.902;2023-07-29T11:54:53;25.10;56.70
38464;DHT22;24243;51.956;5.902;2023-07-29T11:57:19;25.10;56.60
38464;DHT22;24243;51.956;5.902;2023-07-29T11:59:45;25.10;56.70
38464;DHT22;24243;51.956;5.902;2023-07-29T12:02:12;25.10;56.70
38464;DHT22;24243;51.956;5.902;2023-07-29T12:04:38;25.10;56.70
38464;DHT22;24243;51.956;5.902;2023-07-29T12:07:04;25.10;56.70
38464;DHT22;24243;51.956;5.902;2023-07-29T12:09:30;25.10;56.70
38464;DHT22;24243;51.956;5.902;2023-07-29T12:11:56;25.10;56.70
38464;DHT22;24243;51.956;5.902;2023-07-29T12:14:21;25.10;56.70
38464;DHT22;24243;51.956;5.902;2023-07-29T12:16:47;25.10;56.80
38464;DHT22;24243;51.956;5.902;2023-07-29T12:19:14;25.10;56.80
38464;DHT22;24243;51.956;5.902;2023-07-29T12:21:40;25.10;56.80
38464;DHT22;24243;51.956;5.902;2023-07-29T12:24:06;25.10;56.80
38464;DHT22;24243;51.956;5.902;2023-07-29T12:26:32;25.10;56.80
38464;DHT22;24243;51.956;5.902;2023-07-29T12:28:58;25.10;56.80
38464;DHT22;24243;51.956;5.902;2023-07-29T12:31:33;25.10;56.80
38464;DHT22;24243;51.956;5.902;2023-07-29T12:34:02;25.10;56.80
38464;DHT22;24243;51.956;5.902;2023-07-29T12:36:44;25.20;56.90
38464;DHT22;24243;51.956;5.902;2023-07-29T12:39:17;25.10;56.80
38464;DHT22;24243;51.956;5.902;2023-07-29T12:41:43;25.20;56.90
38464;DHT22;24243;51.956;5.902;2023-07-29T12:44:08;25.20;56.90
38464;DHT22;24243;51.956;5.902;2023-07-29T12:46:34;25.20;56.90
38464;DHT22;24243;51.956;5.902;2023-07-29T12:49:00;25.20;56.90
38464;DHT22;24243;51.956;5.902;2023-07-29T12:51:26;25.20;56.90
38464;DHT22;24243;51.956;5.902;2023-07-29T12:53:53;25.20;56.90
38464;DHT22;24243;51.956;5.902;2023-07-29T12:56:18;25.20;56.90
38464;DHT22;24243;51.956;5.902;2023-07-29T12:58:44;25.20;56.90
38464;DHT22;24243;51.956;5.902;2023-07-29T13:01:09;25.20;57.00
38464;DHT22;24243;51.956;5.902;2023-07-29T13:03:39;25.20;57.00
38464;DHT22;24243;51.956;5.902;2023-07-29T13:06:13;25.20;57.60
38464;DHT22;24243;51.956;5.902;2023-07-29T13:08:39;25.20;57.00
38464;DHT22;24243;51.956;5.902;2023-07-29T13:11:04;25.30;57.10
38464;DHT22;24243;51.956;5.902;2023-07-29T13:13:31;25.30;57.10
38464;DHT22;24243;51.956;5.902;2023-07-29T13:16:00;25.30;57.10
38464;DHT22;24243;51.956;5.902;2023-07-29T13:18:26;25.30;57.10
38464;DHT22;24243;51.956;5.902;2023-07-29T13:20:52;25.30;57.10
38464;DHT22;24243;51.956;5.902;2023-07-29T13:23:18;25.30;57.10
38464;DHT22;24243;51.956;5.902;2023-07-29T13:25:43;25.30;57.20
38464;DHT22;24243;51.956;5.902;2023-07-29T13:28:10;25.30;57.20
38464;DHT22;24243;51.956;5.902;2023-07-29T13:30:35;25.30;57.20
38464;DHT22;24243;51.956;5.902;2023-07-29T13:33:01;25.30;57.20
38464;DHT22;24243;51.956;5.902;2023-07-29T13:35:27;25.30;57.20
38464;DHT22;24243;51.956;5.902;2023-07-29T13:37:52;25.30;57.20
38464;DHT22;24243;51.956;5.902;2023-07-29T13:40:18;25.30;57.20
38464;DHT22;24243;51.956;5.902;2023-07-29T13:42:43;25.30;57.20
38464;DHT22;24243;51.956;5.902;2023-07-29T13:45:09;25.30;57.20
38464;DHT22;24243;51.956;5.902;2023-07-29T13:47:35;25.30;57.30
38464;DHT22;24243;51.956;5.902;2023-07-29T13:50:00;25.30;57.30
38464;DHT22;24243;51.956;5.902;2023-07-29T13:52:26;25.40;57.40
38464;DHT22;24243;51.956;5.902;2023-07-29T13:54:52;25.40;57.40
38464;DHT22;24243;51.956;5.902;2023-07-29T13:57:17;25.40;57.40
38464;DHT22;24243;51.956;5.902;2023-07-29T13:59:43;25.40;57.40
38464;DHT22;24243;51.956;5.902;2023-07-29T14:02:09;25.40;57.40
38464;DHT22;24243;51.956;5.902;2023-07-29T14:04:34;25.40;57.40
38464;DHT22;24243;51.956;5.902;2023-07-29T14:07:00;25.40;57.50
38464;DHT22;24243;51.956;5.902;2023-07-29T14:09:26;25.30;57.40
38464;DHT22;24243;51.956;5.902;2023-07-29T14:11:52;25.40;57.40
38464;DHT22;24243;51.956;5.902;2023-07-29T14:14:17;25.30;57.30
38464;DHT22;24243;51.956;5.902;2023-07-29T14:16:43;25.30;57.30
38464;DHT22;24243;51.956;5.902;2023-07-29T14:19:09;25.40;57.40
38464;DHT22;24243;51.956;5.902;2023-07-29T14:21:34;25.40;57.50
38464;DHT22;24243;51.956;5.902;2023-07-29T14:24:00;25.40;57.40
38464;DHT22;24243;51.956;5.902;2023-07-29T14:26:25;25.40;57.50
38464;DHT22;24243;51.956;5.902;2023-07-29T14:28:51;25.40;57.50
38464;DHT22;24243;51.956;5.902;2023-07-29T14:31:17;25.40;57.50
38464;DHT22;24243;51.956;5.902;2023-07-29T14:33:43;25.40;57.50
38464;DHT22;24243;51.956;5.902;2023-07-29T14:36:09;25.30;57.40
38464;DHT22;24243;51.956;5.902;2023-07-29T14:38:35;25.30;57.40
38464;DHT22;24243;51.956;5.902;2023-07-29T14:41:01;25.30;57.40
38464;DHT22;24243;51.956;5.902;2023-07-29T14:43:27;25.40;57.50
38464;DHT22;24243;51.956;5.902;2023-07-29T14:45:52;25.40;57.50
38464;DHT22;24243;51.956;5.902;2023-07-29T14:48:18;25.40;57.50
38464;DHT22;24243;51.956;5.902;2023-07-29T14:50:44;25.30;57.50
38464;DHT22;24243;51.956;5.902;2023-07-29T14:53:10;25.30;57.50
38464;DHT22;24243;51.956;5.902;2023-07-29T14:55:36;25.30;57.50
38464;DHT22;24243;51.956;5.902;2023-07-29T14:58:03;25.30;57.50
38464;DHT22;24243;51.956;5.902;2023-07-29T15:00:29;25.30;57.50
38464;DHT22;24243;51.956;5.902;2023-07-29T15:02:54;25.30;57.50
38464;DHT22;24243;51.956;5.902;2023-07-29T15:05:20;25.30;57.50
38464;DHT22;24243;51.956;5.902;2023-07-29T15:07:46;25.30;57.50
38464;DHT22;24243;51.956;5.902;2023-07-29T15:10:14;25.30;57.60
38464;DHT22;24243;51.956;5.902;2023-07-29T15:12:39;25.30;57.60
38464;DHT22;24243;51.956;5.902;2023-07-29T15:15:05;25.30;57.60
38464;DHT22;24243;51.956;5.902;2023-07-29T15:17:31;25.30;57.60
38464;DHT22;24243;51.956;5.902;2023-07-29T15:19:56;25.30;57.60
38464;DHT22;24243;51.956;5.902;2023-07-29T15:22:22;25.30;57.60
38464;DHT22;24243;51.956;5.902;2023-07-29T15:24:48;25.20;57.50
38464;DHT22;24243;51.956;5.902;2023-07-29T15:27:13;25.30;57.60
38464;DHT22;24243;51.956;5.902;2023-07-29T15:29:39;25.30;57.50
38464;DHT22;24243;51.956;5.902;2023-07-29T15:32:05;25.30;57.50
38464;DHT22;24243;51.956;5.902;2023-07-29T15:34:30;25.30;57.50
38464;DHT22;24243;51.956;5.902;2023-07-29T15:36:57;25.20;57.40